Pekin, IL (61554)

5:42 AM CDT on July 27, 2016 (GMT -0500)
Glorianne Acres | | Change Station

Elev 525 ft 40.53 °N, 89.63 °W | Updated 7 seconds ago

Clear
Clear
68.4 °F
Feels Like 68.4 °F
N
0.0
Wind Variable Wind from NW
Gusts 0.0 mph

Today
High -- | Low -- °F
--% Chance of Precip.
Yesterday
High -- | Low -- °F
Precip. -- in
Pressure 30.01 in
Visibility 10.0 miles
Clouds Clear
Dew Point 67 °F
Humidity 95%
Rainfall 0.00 in
Snow Depth Not available.
5:51 AM 8:18 PM
Last Quarter, 44% visible
METAR KPIA 270954Z 00000KT 10SM R13/1800VP6000FT CLR 21/20 A3002 RMK AO2 SLP160 T02060200
Pressure 30.01 in
Visibility 10.0 miles
Clouds Clear
Dew Point 67 °F
Humidity 95%
Rainfall 0.00 in
Snow Depth Not available.
5:51 AM 8:18 PM
Last Quarter, 44% visible
METAR KPIA 270954Z 00000KT 10SM R13/1800VP6000FT CLR 21/20 A3002 RMK AO2 SLP160 T02060200

10-Day Weather Forecast

Almanac

Astronomy

Jul. 27, 2016 Rise Set
Actual Time
Civil Twilight
Nautical Twilight
Astronomical Twilight
Moon
Length of Visible Light
Length of Day
Tomorrow will be .
, % of the Moon is Illuminated

Today's Extremes

State Highs State Lows

Community

WunderPhotos

Upload Photos

1,927,825 photos uploaded!

WunderBlog® & News

Nearby

Air Quality

  Air Quality AQ Index Pollutant
Not available.

Snow Depth

Station Depth Elevation

Earthquake Activity

City Distance Mag. Time & Date
Minimum magnitude displayed is 2.5.

Coastal Water Temperatures

Place Temperature

Stations

Nearby Weather Stations

Station Location Temp. Windchill Dew Point Humidity Wind Precip. Elev Updated Type
                   

Watches & Warnings

There are currently no watches in effect.